Time;durP1;ratioP1;P1;durP2;ratioP2;P2;SDS_P1;SDS_P2;PMS_P1;PMS_P2;Temp;Humidity;BMP_temperature;BMP_pressure;BME280_temperature;BME280_humidity;BME280_pressure;Samples;Min_cycle;Max_cycle;Signal;HPM_P1;HPM_P2
2023/09/23 00:00:14;;;;;;;;;;;14.20;99.90;;;;;;5053744;28;20124;-74
2023/09/23 00:02:43;;;;;;;6.70;5.53;;;14.20;99.90;;;;;;5056009;28;19920;-74
2023/09/23 00:05:15;;;;;;;6.28;5.22;;;14.20;99.90;;;;;;5054137;28;20447;-74
2023/09/23 00:07:41;;;;;;;8.93;6.60;;;14.20;99.90;;;;;;5052519;28;20435;-74
2023/09/23 00:10:09;;;;;;;8.65;6.80;;;14.20;99.90;;;;;;5067178;28;20044;-74
2023/09/23 00:12:35;;;;;;;8.85;6.32;;;14.20;99.90;;;;;;5062413;28;20055;-74
2023/09/23 00:15:03;;;;;;;7.47;6.55;;;14.20;99.90;;;;;;5048132;28;20121;-73
2023/09/23 00:17:29;;;;;;;7.50;6.78;;;14.20;99.90;;;;;;5045985;28;20044;-74
2023/09/23 00:19:54;;;;;;;8.07;7.28;;;14.20;99.90;;;;;;5053311;28;20075;-73
2023/09/23 00:22:21;;;;;;;7.85;7.15;;;14.20;99.90;;;;;;5051228;28;20072;-74
2023/09/23 00:24:47;;;;;;;7.57;6.80;;;14.20;99.90;;;;;;5049693;28;20048;-74
2023/09/23 00:27:13;;;;;;;7.95;7.25;;;14.20;99.90;;;;;;5050880;28;20056;-74
2023/09/23 00:29:39;;;;;;;8.35;7.43;;;14.20;99.90;;;;;;5056072;28;20041;-74
2023/09/23 00:32:05;;;;;;;8.13;7.32;;;14.10;99.90;;;;;;5080211;28;20492;-74
2023/09/23 00:34:30;;;;;;;8.18;7.38;;;14.10;99.90;;;;;;5061638;28;20369;-74
2023/09/23 00:36:56;;;;;;;8.40;7.53;;;14.10;99.90;;;;;;5074654;28;20511;-74
2023/09/23 00:39:21;;;;;;;7.88;7.07;;;14.00;99.90;;;;;;5051363;28;20478;-74
2023/09/23 00:41:47;;;;;;;8.18;7.38;;;14.00;99.90;;;;;;5068633;28;20376;-74
2023/09/23 00:44:13;;;;;;;7.97;7.28;;;14.00;99.90;;;;;;5061993;28;20045;-74
2023/09/23 00:46:42;;;;;;;9.10;8.20;;;14.00;99.90;;;;;;5060067;28;20037;-74
2023/09/23 00:49:08;;;;;;;7.85;7.05;;;14.00;99.90;;;;;;5050894;28;20056;-74
2023/09/23 00:51:37;;;;;;;8.40;7.60;;;14.00;99.90;;;;;;5055827;28;20071;-74
2023/09/23 00:54:06;;;;;;;8.75;8.02;;;14.00;99.90;;;;;;5049547;28;20067;-74
2023/09/23 00:56:34;;;;;;;10.48;8.90;;;14.00;99.90;;;;;;5052079;28;20045;-74
2023/09/23 00:59:04;;;;;;;9.55;8.65;;;14.00;99.90;;;;;;5068113;28;20510;-74
2023/09/23 01:01:31;;;;;;;9.70;8.68;;;14.00;99.90;;;;;;5054599;28;20045;-74
2023/09/23 01:03:57;;;;;;;9.38;8.45;;;14.00;99.90;;;;;;5071085;28;20045;-75
2023/09/23 01:06:26;;;;;;;9.68;8.73;;;14.00;99.90;;;;;;5054427;28;20040;-74
2023/09/23 01:08:54;;;;;;;9.82;8.93;;;14.00;99.90;;;;;;5077006;28;20040;-74
2023/09/23 01:11:21;;;;;;;9.25;8.45;;;14.00;99.90;;;;;;5070427;28;20068;-74
2023/09/23 01:13:51;;;;;;;9.50;8.60;;;14.00;99.90;;;;;;5074426;28;20115;-74
2023/09/23 01:16:17;;;;;;;9.63;8.63;;;14.00;99.90;;;;;;5064170;28;20070;-74
2023/09/23 01:18:45;;;;;;;9.45;8.52;;;13.90;99.90;;;;;;5053493;28;20116;-74
2023/09/23 01:21:12;;;;;;;10.15;9.15;;;13.90;99.90;;;;;;5060176;28;20052;-74
2023/09/23 01:23:38;;;;;;;;;;;13.90;99.90;;;;;;5068652;28;20491;-74
2023/09/23 01:26:04;;;;;;;8.15;7.35;;;13.80;99.90;;;;;;5057745;28;19920;-74
2023/09/23 01:28:33;;;;;;;7.10;6.40;;;13.80;99.90;;;;;;5052469;28;20040;-74
2023/09/23 01:31:00;;;;;;;7.18;6.47;;;13.80;99.90;;;;;;5053455;28;20053;-74
2023/09/23 01:33:27;;;;;;;6.30;5.70;;;13.80;99.90;;;;;;5059351;28;20052;-74
2023/09/23 01:35:56;;;;;;;6.18;5.15;;;13.80;99.90;;;;;;5060276;28;20133;-74
2023/09/23 01:38:23;;;;;;;5.47;4.70;;;13.70;99.90;;;;;;5062110;28;20119;-74
2023/09/23 01:40:48;;;;;;;5.75;5.00;;;13.70;99.90;;;;;;5054662;28;20801;-75
2023/09/23 01:43:14;;;;;;;5.13;4.55;;;13.70;99.90;;;;;;5057655;28;20204;-73
2023/09/23 01:45:40;;;;;;;4.45;3.83;;;13.70;99.90;;;;;;5031215;28;20159;-73
2023/09/23 01:48:06;;;;;;;3.80;3.50;;;13.60;99.90;;;;;;5051670;28;20055;-72
2023/09/23 01:50:32;;;;;;;5.22;3.42;;;13.60;99.90;;;;;;5059757;28;20102;-73
2023/09/23 01:53:00;;;;;;;3.47;3.13;;;13.50;99.90;;;;;;5053958;28;20982;-73
2023/09/23 01:55:27;;;;;;;3.60;3.30;;;13.50;99.90;;;;;;5053824;28;20037;-73
2023/09/23 01:57:52;;;;;;;3.40;3.10;;;13.50;99.90;;;;;;5050766;28;20055;-73
2023/09/23 02:00:21;;;;;;;4.13;3.72;;;13.50;99.90;;;;;;5047868;28;20048;-73
2023/09/23 02:02:53;;;;;;;4.47;3.50;;;13.50;99.90;;;;;;5065355;28;20047;-73
2023/09/23 02:05:20;;;;;;;4.97;4.32;;;13.40;99.90;;;;;;5076364;28;20064;-73
2023/09/23 02:07:48;;;;;;;5.22;4.68;;;13.50;99.90;;;;;;5066752;28;20040;-73
2023/09/23 02:10:14;;;;;;;5.88;5.32;;;13.50;99.90;;;;;;5060118;28;20091;-73
2023/09/23 02:12:42;;;;;;;5.70;4.72;;;13.50;99.90;;;;;;5058986;28;20040;-73
2023/09/23 02:15:08;;;;;;;;;;;13.40;99.90;;;;;;5053579;28;20041;-73
2023/09/23 02:17:37;;;;;;;5.40;4.90;;;13.40;99.90;;;;;;5057375;28;20007;-72
2023/09/23 02:20:11;;;;;;;5.97;5.20;;;13.40;99.90;;;;;;5052922;28;20752;-74
2023/09/23 02:22:37;;;;;;;6.55;5.90;;;13.40;99.90;;;;;;5054712;28;20045;-74
2023/09/23 02:25:04;;;;;;;6.20;5.60;;;13.50;99.90;;;;;;5072110;28;20122;-74
2023/09/23 02:27:30;;;;;;;6.68;6.03;;;13.40;99.90;;;;;;5054752;28;20037;-74
2023/09/23 02:29:56;;;;;;;6.60;6.00;;;13.50;99.90;;;;;;5050907;28;20045;-74
2023/09/23 02:32:21;;;;;;;6.32;5.70;;;13.50;99.90;;;;;;5050004;28;20053;-74
2023/09/23 02:34:47;;;;;;;5.95;5.35;;;13.50;99.90;;;;;;5055322;28;20146;-74
2023/09/23 02:37:13;;;;;;;6.15;5.55;;;13.50;99.90;;;;;;5049041;28;20119;-74
2023/09/23 02:39:38;;;;;;;5.65;5.05;;;13.60;99.90;;;;;;5053381;28;20069;-74
2023/09/23 02:42:05;;;;;;;6.75;5.93;;;13.50;99.90;;;;;;5052593;28;20099;-74
2023/09/23 02:44:31;;;;;;;6.03;4.73;;;13.50;99.90;;;;;;5051844;28;20044;-74
2023/09/23 02:46:56;;;;;;;5.63;5.10;;;13.50;99.90;;;;;;5052309;28;20055;-74
2023/09/23 02:49:22;;;;;;;6.28;5.38;;;13.50;99.90;;;;;;5069495;28;20439;-74
2023/09/23 02:51:49;;;;;;;5.28;4.78;;;13.50;99.90;;;;;;5058387;28;20127;-74
2023/09/23 02:54:17;;;;;;;5.70;4.73;;;13.50;99.90;;;;;;5059494;28;20108;-74
2023/09/23 02:56:46;;;;;;;5.25;4.75;;;13.40;99.90;;;;;;5053912;28;20045;-73
2023/09/23 02:59:21;;;;;;;5.53;4.40;;;13.40;99.90;;;;;;5053672;28;20574;-74
2023/09/23 03:01:51;;;;;;;5.20;4.70;;;13.40;99.90;;;;;;5049972;28;20044;-74
2023/09/23 03:04:23;;;;;;;5.22;4.60;;;13.30;99.90;;;;;;5049559;28;20053;-74
2023/09/23 03:07:01;;;;;;;5.47;4.97;;;13.20;99.90;;;;;;5056148;28;20491;-73
2023/09/23 03:09:32;;;;;;;6.57;5.90;;;13.20;99.90;;;;;;5051756;28;20503;-73
2023/09/23 03:11:59;;;;;;;6.90;6.28;;;13.20;99.90;;;;;;5051737;28;20105;-73
2023/09/23 03:14:35;;;;;;;8.85;6.88;;;13.10;99.90;;;;;;5051960;28;20066;-73
2023/09/23 03:17:03;;;;;;;7.80;6.30;;;13.10;99.90;;;;;;5052330;28;20539;-74
2023/09/23 03:19:28;;;;;;;7.93;7.13;;;13.00;99.90;;;;;;5067424;28;20037;-74
2023/09/23 03:21:58;;;;;;;8.07;7.28;;;13.00;99.90;;;;;;5055044;28;20392;-73
2023/09/23 03:24:28;;;;;;;8.23;7.43;;;13.00;99.90;;;;;;5055062;28;20095;-73
2023/09/23 03:26:58;;;;;;;8.80;7.90;;;12.90;99.90;;;;;;5051017;28;20393;-74
2023/09/23 03:29:28;;;;;;;8.73;7.50;;;12.90;99.90;;;;;;5067881;28;20113;-74
2023/09/23 03:31:57;;;;;;;9.77;8.43;;;12.90;99.90;;;;;;5030035;28;20464;-74
2023/09/23 03:34:23;;;;;;;8.75;7.95;;;12.90;99.90;;;;;;5059398;28;20055;-74
2023/09/23 03:36:53;;;;;;;8.65;7.80;;;12.90;99.90;;;;;;5055088;28;20048;-74
2023/09/23 03:39:19;;;;;;;9.93;8.90;;;12.90;99.90;;;;;;5060185;28;20582;-74
2023/09/23 03:41:49;;;;;;;9.65;8.75;;;12.90;99.90;;;;;;5045882;28;20508;-74
2023/09/23 03:44:15;;;;;;;8.95;8.10;;;12.80;99.90;;;;;;5054963;28;20029;-74
2023/09/23 03:46:46;;;;;;;10.60;9.60;;;12.80;99.90;;;;;;5049187;28;20525;-74
2023/09/23 03:49:12;;;;;;;10.05;9.00;;;12.80;99.90;;;;;;5052640;28;20392;-74
2023/09/23 03:51:39;;;;;;;11.07;9.98;;;12.80;99.90;;;;;;5049626;28;20108;-74
2023/09/23 03:54:07;;;;;;;11.30;10.20;;;12.70;99.90;;;;;;5059522;28;20379;-74
2023/09/23 03:56:34;;;;;;;11.38;10.20;;;12.70;99.90;;;;;;5050439;28;20069;-74
2023/09/23 03:59:01;;;;;;;11.35;10.15;;;12.70;99.90;;;;;;5059013;28;20590;-74
2023/09/23 04:01:27;;;;;;;;;;;12.70;99.90;;;;;;5056179;28;20078;-74
2023/09/23 04:03:54;;;;;;;11.38;10.05;;;12.70;99.90;;;;;;5054545;28;19920;-74
2023/09/23 04:06:20;;;;;;;11.57;10.50;;;12.70;99.90;;;;;;5048684;28;20110;-74
2023/09/23 04:08:47;;;;;;;11.98;10.75;;;12.70;99.90;;;;;;5046792;28;20076;-74
2023/09/23 04:11:15;;;;;;;11.80;10.68;;;12.70;99.90;;;;;;5057461;28;20135;-74
2023/09/23 04:13:44;;;;;;;12.80;11.57;;;12.60;99.90;;;;;;5056583;28;20728;-73
2023/09/23 04:16:11;;;;;;;12.85;11.60;;;12.60;99.90;;;;;;5051517;28;20498;-74
2023/09/23 04:18:37;;;;;;;12.90;11.70;;;12.60;99.90;;;;;;5039189;28;20186;-74
2023/09/23 04:21:03;;;;;;;13.73;12.43;;;12.60;99.90;;;;;;5048968;28;23741;-73
2023/09/23 04:23:29;;;;;;;13.23;11.93;;;12.60;99.90;;;;;;5051038;28;20204;-74
2023/09/23 04:25:55;;;;;;;14.35;12.85;;;12.60;99.90;;;;;;5067044;28;20399;-74
2023/09/23 04:28:22;;;;;;;14.82;13.43;;;12.50;99.90;;;;;;5058583;28;20033;-74
2023/09/23 04:30:54;;;;;;;13.45;12.18;;;12.50;99.90;;;;;;5051839;28;20049;-74
2023/09/23 04:33:20;;;;;;;14.38;13.02;;;12.50;99.90;;;;;;5052827;28;20044;-74
2023/09/23 04:35:47;;;;;;;13.88;12.57;;;12.50;99.90;;;;;;5056257;28;20048;-74
2023/09/23 04:38:14;;;;;;;14.82;13.32;;;12.50;99.90;;;;;;5058483;28;20086;-74
2023/09/23 04:40:40;;;;;;;14.55;13.15;;;12.50;99.90;;;;;;5053331;28;20036;-74
2023/09/23 04:43:06;;;;;;;14.82;13.48;;;12.50;99.90;;;;;;5053484;28;20044;-74
2023/09/23 04:45:32;;;;;;;15.52;13.90;;;12.50;99.90;;;;;;5059474;28;20043;-74
2023/09/23 04:48:00;;;;;;;15.18;13.77;;;12.50;99.90;;;;;;5058053;28;20052;-74
2023/09/23 04:50:28;;;;;;;16.05;14.45;;;12.50;99.90;;;;;;5055924;28;20190;-74
2023/09/23 04:52:53;;;;;;;17.30;15.63;;;12.50;99.90;;;;;;5042351;28;20126;-74
2023/09/23 04:55:20;;;;;;;16.77;15.07;;;12.50;99.90;;;;;;5056364;28;20048;-74
2023/09/23 04:57:46;;;;;;;17.55;15.75;;;12.50;99.90;;;;;;5058332;28;20097;-74
2023/09/23 05:00:18;;;;;;;17.67;16.00;;;12.40;99.90;;;;;;5051068;28;20048;-73
2023/09/23 05:02:43;;;;;;;17.83;16.13;;;12.40;99.90;;;;;;5058828;28;20091;-73
2023/09/23 05:05:09;;;;;;;18.10;16.33;;;12.40;99.90;;;;;;5057196;28;20088;-73
2023/09/23 05:07:37;;;;;;;19.20;17.40;;;12.40;99.90;;;;;;5059352;28;20147;-74
2023/09/23 05:10:03;;;;;;;;;;;12.40;99.90;;;;;;5069925;28;20107;-74
2023/09/23 05:12:29;;;;;;;20.52;18.67;;;12.40;99.90;;;;;;5037392;28;20279;-74
2023/09/23 05:14:57;;;;;;;21.80;19.83;;;12.40;99.90;;;;;;5053171;28;20044;-73
2023/09/23 05:17:26;;;;;;;;;;;12.50;99.90;;;;;;5060180;28;20047;-74
2023/09/23 05:19:52;;;;;;;22.67;20.63;;;12.50;99.90;;;;;;5052771;28;19925;-74
2023/09/23 05:22:18;;;;;;;24.70;22.50;;;12.50;99.90;;;;;;5059180;28;20037;-74
2023/09/23 05:24:48;;;;;;;25.15;22.75;;;12.60;99.90;;;;;;5051376;28;20073;-74
2023/09/23 05:27:17;;;;;;;25.38;22.77;;;12.60;99.90;;;;;;5050582;28;20454;-74
2023/09/23 05:29:44;;;;;;;25.77;23.17;;;12.60;99.90;;;;;;5062049;28;20055;-74
2023/09/23 05:32:11;;;;;;;26.08;23.67;;;12.60;99.90;;;;;;5051381;28;20357;-73
2023/09/23 05:34:40;;;;;;;26.35;23.85;;;12.70;99.90;;;;;;5053667;28;20788;-73
2023/09/23 05:37:11;;;;;;;24.60;22.15;;;12.70;99.90;;;;;;5065486;28;20037;-74
2023/09/23 05:39:37;;;;;;;25.20;22.77;;;12.70;99.90;;;;;;5054946;28;20139;-73
2023/09/23 05:42:03;;;;;;;26.30;23.85;;;12.70;99.90;;;;;;5056391;28;20044;-74
2023/09/23 05:44:28;;;;;;;27.27;24.67;;;12.80;99.90;;;;;;5059833;28;20585;-72
2023/09/23 05:46:54;;;;;;;27.45;24.75;;;12.80;99.90;;;;;;5049032;28;20049;-73
2023/09/23 05:49:20;;;;;;;27.70;25.10;;;12.80;99.90;;;;;;5052503;28;20064;-72
2023/09/23 05:51:45;;;;;;;27.88;25.35;;;12.80;99.90;;;;;;5061352;28;20041;-72
2023/09/23 05:54:11;;;;;;;27.67;25.15;;;12.80;99.90;;;;;;5054731;28;20055;-74
2023/09/23 05:56:38;;;;;;;28.02;25.20;;;12.80;99.90;;;;;;5051315;28;20372;-74
2023/09/23 05:59:05;;;;;;;29.05;26.30;;;12.90;99.90;;;;;;5058315;28;20484;-73
2023/09/23 06:01:33;;;;;;;30.67;27.85;;;12.90;99.90;;;;;;5050151;28;20488;-72
2023/09/23 06:03:58;;;;;;;29.20;26.38;;;12.90;99.90;;;;;;5060521;28;20411;-73
2023/09/23 06:06:24;;;;;;;31.08;28.20;;;12.90;99.90;;;;;;5059767;28;20048;-74
2023/09/23 06:08:50;;;;;;;31.95;28.85;;;12.90;99.90;;;;;;5059782;28;20064;-75
2023/09/23 06:11:17;;;;;;;29.70;26.80;;;12.90;99.90;;;;;;5066431;28;20051;-74
2023/09/23 06:13:42;;;;;;;30.33;27.55;;;13.00;99.90;;;;;;5054635;28;20032;-74
2023/09/23 06:16:08;;;;;;;33.17;29.92;;;13.00;99.90;;;;;;5053563;28;20110;-73
2023/09/23 06:18:34;;;;;;;31.70;28.70;;;13.00;99.90;;;;;;5066594;28;20041;-72
2023/09/23 06:21:00;;;;;;;31.73;28.80;;;13.10;99.90;;;;;;5051873;28;20739;-72
2023/09/23 06:23:26;;;;;;;30.57;27.77;;;13.10;99.90;;;;;;5066497;28;20476;-72
2023/09/23 06:25:57;;;;;;;32.00;28.83;;;13.10;99.90;;;;;;5073265;28;20044;-73
2023/09/23 06:28:23;;;;;;;31.95;28.98;;;13.10;99.90;;;;;;5062189;28;21044;-72
2023/09/23 06:30:49;;;;;;;31.60;28.70;;;13.10;99.90;;;;;;5065972;28;20131;-73
2023/09/23 06:33:15;;;;;;;32.83;29.65;;;13.10;99.90;;;;;;5081583;28;20041;-72
2023/09/23 06:35:41;;;;;;;32.97;29.80;;;13.10;99.90;;;;;;5065937;28;20660;-72
2023/09/23 06:38:07;;;;;;;31.75;28.70;;;13.10;99.90;;;;;;5062398;28;20041;-72
2023/09/23 06:40:32;;;;;;;31.83;28.83;;;13.10;99.90;;;;;;5058733;28;20044;-77
2023/09/23 06:42:58;;;;;;;32.33;29.30;;;13.20;99.90;;;;;;5060953;28;20037;-73
2023/09/23 06:45:24;;;;;;;31.45;28.38;;;13.20;99.90;;;;;;5057393;28;20036;-73
2023/09/23 06:47:50;;;;;;;33.00;29.70;;;13.20;99.90;;;;;;5062270;28;20049;-72
2023/09/23 06:50:16;;;;;;;33.58;30.38;;;13.20;99.90;;;;;;5053469;28;20106;-72
2023/09/23 06:52:42;;;;;;;33.63;30.35;;;13.30;99.90;;;;;;5052763;28;20180;-73
2023/09/23 06:55:08;;;;;;;30.40;27.40;;;13.30;99.90;;;;;;5056212;28;20110;-72
2023/09/23 06:57:37;;;;;;;31.20;28.13;;;13.30;99.90;;;;;;5062358;28;20048;-71
2023/09/23 07:00:07;;;;;;;30.15;27.20;;;13.30;99.90;;;;;;5055324;28;20128;-71
2023/09/23 07:02:34;;;;;;;31.50;28.50;;;13.40;99.90;;;;;;5054797;28;20429;-71
2023/09/23 07:05:03;;;;;;;32.47;29.17;;;13.40;99.90;;;;;;5052082;28;20263;-71
2023/09/23 07:07:31;;;;;;;30.70;27.75;;;13.50;99.90;;;;;;5073327;28;20049;-72
2023/09/23 07:09:57;;;;;;;30.67;27.77;;;13.40;99.90;;;;;;5062078;28;20174;-72
2023/09/23 07:12:23;;;;;;;29.50;26.67;;;13.40;99.90;;;;;;5061567;28;20053;-72
2023/09/23 07:14:49;;;;;;;31.05;28.15;;;13.40;99.90;;;;;;5052370;28;20128;-72
2023/09/23 07:17:15;;;;;;;30.98;27.88;;;13.50;99.90;;;;;;5067939;28;20659;-73
2023/09/23 07:19:41;;;;;;;29.85;27.02;;;13.50;99.90;;;;;;5060535;28;20080;-73
2023/09/23 07:22:06;;;;;;;30.52;27.42;;;13.50;99.90;;;;;;5060715;28;20049;-73
2023/09/23 07:24:35;;;;;;;30.30;27.48;;;13.60;99.90;;;;;;5054992;28;20041;-73
2023/09/23 07:27:01;;;;;;;30.73;27.52;;;13.60;99.90;;;;;;5047916;28;20053;-72
2023/09/23 07:29:26;;;;;;;28.48;25.77;;;13.70;99.90;;;;;;5061521;28;20476;-72
2023/09/23 07:31:53;;;;;;;28.67;26.00;;;13.70;99.90;;;;;;5065860;28;20053;-72
2023/09/23 07:34:19;;;;;;;30.30;27.30;;;13.70;99.90;;;;;;5051839;28;20037;-72
2023/09/23 07:36:45;;;;;;;29.42;26.63;;;13.70;99.90;;;;;;5073666;28;20052;-74
2023/09/23 07:39:12;;;;;;;30.50;27.52;;;13.80;99.90;;;;;;5059101;28;20086;-74
2023/09/23 07:41:38;;;;;;;29.85;27.05;;;13.90;99.90;;;;;;5052116;28;20041;-73
2023/09/23 07:44:04;;;;;;;28.90;26.15;;;14.00;99.90;;;;;;5066657;28;20076;-74
2023/09/23 07:46:30;;;;;;;29.88;26.88;;;14.00;99.90;;;;;;5049840;28;20082;-73
2023/09/23 07:48:56;;;;;;;28.30;25.63;;;14.10;99.90;;;;;;5047873;28;20056;-74
2023/09/23 07:51:22;;;;;;;27.85;25.02;;;14.20;99.90;;;;;;5054299;28;20045;-74
2023/09/23 07:53:47;;;;;;;26.98;24.30;;;14.20;99.90;;;;;;5052308;28;20045;-74
2023/09/23 07:56:13;;;;;;;26.98;24.30;;;14.30;99.90;;;;;;5052695;28;20128;-74
2023/09/23 07:58:39;;;;;;;26.30;23.75;;;14.30;99.90;;;;;;5050103;28;20047;-73
2023/09/23 08:01:04;;;;;;;25.15;22.65;;;14.30;99.90;;;;;;5052742;28;20090;-73
2023/09/23 08:03:30;;;;;;;24.13;21.73;;;14.30;99.90;;;;;;5059767;28;20040;-72
2023/09/23 08:05:56;;;;;;;24.55;22.38;;;14.30;99.90;;;;;;5055714;28;20052;-73
2023/09/23 08:08:21;;;;;;;23.60;21.38;;;14.30;99.90;;;;;;5060982;28;20510;-71
2023/09/23 08:10:50;;;;;;;23.15;21.08;;;14.30;99.90;;;;;;5057337;28;20052;-71
2023/09/23 08:13:17;;;;;;;23.63;21.30;;;14.40;99.90;;;;;;5064635;28;20507;-71
2023/09/23 08:15:43;;;;;;;23.38;21.08;;;14.50;99.90;;;;;;5048839;28;20119;-71
2023/09/23 08:18:08;;;;;;;21.48;19.38;;;14.60;99.90;;;;;;5058694;28;20139;-72
2023/09/23 08:20:35;;;;;;;23.40;21.10;;;14.70;99.90;;;;;;5062755;28;20163;-75
2023/09/23 08:23:01;;;;;;;22.85;20.58;;;14.80;99.90;;;;;;5050330;28;20044;-73
2023/09/23 08:25:27;;;;;;;21.60;19.42;;;14.80;99.90;;;;;;5057159;28;20048;-73
2023/09/23 08:27:56;;;;;;;21.60;19.63;;;14.80;99.90;;;;;;5047956;28;20094;-73
2023/09/23 08:30:22;;;;;;;21.45;19.55;;;14.80;99.90;;;;;;5053046;28;20045;-73
2023/09/23 08:32:48;;;;;;;20.67;18.75;;;14.90;99.90;;;;;;5055599;28;20060;-75
2023/09/23 08:35:14;;;;;;;19.80;17.90;;;14.90;99.90;;;;;;5053574;28;20045;-73
2023/09/23 08:37:39;;;;;;;20.15;18.17;;;14.90;99.90;;;;;;5060491;28;20103;-72
2023/09/23 08:40:11;;;;;;;20.05;18.23;;;14.90;99.90;;;;;;5053380;28;20508;-75
2023/09/23 08:42:38;;;;;;;20.90;18.92;;;15.00;99.90;;;;;;5058797;28;20044;-72
2023/09/23 08:45:08;;;;;;;19.98;18.13;;;15.10;99.90;;;;;;5059187;28;20150;-73
2023/09/23 08:47:36;;;;;;;19.85;18.05;;;15.10;99.90;;;;;;5057622;28;20048;-75
2023/09/23 08:50:06;;;;;;;18.65;16.90;;;15.10;99.90;;;;;;5061821;28;20522;-72
2023/09/23 08:52:32;;;;;;;18.48;16.77;;;15.10;99.90;;;;;;5059619;28;20052;-73
2023/09/23 08:54:59;;;;;;;17.98;16.23;;;15.10;99.90;;;;;;5048235;28;20401;-72
2023/09/23 08:57:25;;;;;;;19.73;17.55;;;15.10;99.90;;;;;;5047931;28;20503;-74
2023/09/23 08:59:51;;;;;;;18.38;16.40;;;15.10;99.90;;;;;;5072965;28;20064;-75
2023/09/23 09:02:22;;;;;;;19.13;16.58;;;15.20;99.90;;;;;;5060546;28;20040;-75
2023/09/23 09:04:51;;;;;;;18.38;16.55;;;15.20;99.90;;;;;;5050508;28;20103;-74
2023/09/23 09:07:16;;;;;;;21.23;16.25;;;15.20;99.90;;;;;;5048606;28;20045;-74
2023/09/23 09:09:42;;;;;;;16.58;14.98;;;15.30;99.90;;;;;;5054888;28;20095;-74
2023/09/23 09:12:09;;;;;;;16.88;15.18;;;15.40;99.90;;;;;;5050397;28;20052;-75
2023/09/23 09:14:35;;;;;;;17.23;15.48;;;15.40;99.90;;;;;;5067410;28;20084;-75
2023/09/23 09:17:00;;;;;;;17.58;15.65;;;15.50;99.90;;;;;;5069083;28;20084;-75
2023/09/23 09:19:27;;;;;;;16.00;14.48;;;15.50;99.90;;;;;;5059156;28;20033;-75
2023/09/23 09:21:54;;;;;;;17.58;15.02;;;15.50;99.90;;;;;;5061092;28;20071;-75
2023/09/23 09:24:22;;;;;;;17.50;15.80;;;15.60;99.90;;;;;;5051481;28;20041;-75
2023/09/23 09:26:48;;;;;;;15.65;14.02;;;15.60;99.90;;;;;;5062378;28;20435;-75
2023/09/23 09:29:14;;;;;;;16.38;14.75;;;15.70;99.90;;;;;;5059967;28;20080;-75
2023/09/23 09:31:42;;;;;;;16.85;14.88;;;15.60;99.90;;;;;;5056829;28;20065;-74
2023/09/23 09:34:12;;;;;;;17.05;14.35;;;15.60;99.90;;;;;;5052351;28;20484;-76
2023/09/23 09:36:38;;;;;;;17.25;14.48;;;15.70;99.90;;;;;;5062005;28;20479;-73
2023/09/23 09:39:07;;;;;;;15.40;14.00;;;15.70;99.90;;;;;;5070690;28;20464;-72
2023/09/23 09:41:53;;;;;;;15.43;14.02;;;15.70;99.90;;;;;;5057722;28;20144;-73
2023/09/23 09:44:23;;;;;;;15.27;13.73;;;15.70;99.90;;;;;;5068759;28;20148;-72
2023/09/23 09:46:51;;;;;;;16.45;14.93;;;15.70;99.90;;;;;;5051968;28;20464;-73
2023/09/23 09:49:17;;;;;;;16.13;14.32;;;15.70;99.90;;;;;;5058606;28;20500;-73
2023/09/23 09:51:51;;;;;;;15.77;14.35;;;15.80;99.90;;;;;;5049809;28;20119;-73
2023/09/23 09:54:19;;;;;;;14.60;13.20;;;15.80;99.90;;;;;;5057504;28;20039;-73
2023/09/23 09:56:48;;;;;;;14.35;12.98;;;15.80;99.90;;;;;;5051938;28;20048;-73
2023/09/23 09:59:28;;;;;;;14.15;12.68;;;15.80;99.90;;;;;;5050258;28;20110;-74
2023/09/23 10:01:58;;;;;;;14.75;13.32;;;15.90;99.90;;;;;;5068159;28;20106;-74
2023/09/23 10:04:32;;;;;;;13.38;12.07;;;16.00;99.90;;;;;;5050276;28;20099;-73
2023/09/23 10:06:58;;;;;;;19.40;13.07;;;16.10;99.90;;;;;;5053745;28;20045;-74
2023/09/23 10:09:29;;;;;;;13.43;12.07;;;16.10;99.90;;;;;;5049677;28;20103;-74
2023/09/23 10:11:58;;;;;;;13.55;12.00;;;16.10;99.90;;;;;;5062326;28;20040;-74
2023/09/23 10:14:24;;;;;;;12.55;11.25;;;16.20;99.90;;;;;;5049882;28;20033;-74
2023/09/23 10:17:09;;;;;;;12.97;11.10;;;16.20;99.90;;;;;;5051063;28;20110;-74
2023/09/23 10:19:39;;;;;;;15.20;10.98;;;16.30;99.90;;;;;;5050867;28;20944;-74
2023/09/23 10:22:18;;;;;;;11.27;10.13;;;16.40;99.90;;;;;;5061123;28;20041;-74
2023/09/23 10:24:44;;;;;;;11.52;10.20;;;16.30;99.90;;;;;;5050622;28;20045;-73
2023/09/23 10:27:10;;;;;;;12.13;9.98;;;16.40;99.90;;;;;;5051747;28;20503;-73
2023/09/23 10:29:47;;;;;;;13.65;10.00;;;16.40;99.90;;;;;;5050647;28;20484;-74
2023/09/23 10:32:17;;;;;;;10.32;8.85;;;16.40;99.90;;;;;;5065311;28;20111;-74
2023/09/23 10:34:50;;;;;;;10.25;8.15;;;16.50;99.90;;;;;;5057474;28;20032;-74
2023/09/23 10:37:32;;;;;;;9.73;7.78;;;16.60;99.90;;;;;;5056594;28;20049;-73
2023/09/23 10:40:15;;;;;;;10.32;8.85;;;16.70;99.90;;;;;;5061675;28;20101;-76
2023/09/23 10:42:42;;;;;;;11.70;7.82;;;16.80;99.90;;;;;;5053981;28;20041;-77
2023/09/23 10:45:09;;;;;;;8.68;7.15;;;17.00;99.90;;;;;;5073789;28;20083;-76
2023/09/23 10:47:36;;;;;;;;;;;17.10;99.90;;;;;;5055754;28;20582;-73
2023/09/23 10:50:05;;;;;;;9.10;7.28;;;17.10;99.90;;;;;;5050069;28;19931;-71
2023/09/23 10:52:31;;;;;;;10.52;7.82;;;17.10;99.90;;;;;;5053149;28;20168;-73
2023/09/23 10:54:57;;;;;;;9.10;7.20;;;17.10;99.90;;;;;;5050300;28;20044;-73
2023/09/23 10:57:23;;;;;;;10.35;7.10;;;17.10;99.90;;;;;;5076060;28;20049;-71
2023/09/23 10:59:51;;;;;;;11.23;6.97;;;17.10;99.90;;;;;;5061734;28;20081;-73
2023/09/23 11:02:20;;;;;;;9.15;6.38;;;17.20;99.90;;;;;;5061323;28;20116;-72
2023/09/23 11:04:48;;;;;;;9.23;6.15;;;17.30;99.90;;;;;;5050200;28;20114;-71
2023/09/23 11:07:17;;;;;;;10.07;6.88;;;17.30;99.90;;;;;;5052560;28;20439;-73
2023/09/23 11:09:46;;;;;;;10.23;6.50;;;17.50;99.90;;;;;;5045976;28;20040;-71
2023/09/23 11:12:15;;;;;;;10.18;5.78;;;17.50;99.90;;;;;;5051879;28;20045;-80
2023/09/23 11:14:48;;;;;;;8.27;5.15;;;17.50;99.90;;;;;;5059328;28;20076;-76
2023/09/23 11:17:25;;;;;;;8.25;4.45;;;17.40;99.90;;;;;;5053266;28;20037;-75
2023/09/23 11:20:00;;;;;;;10.02;5.53;;;17.30;99.90;;;;;;5058097;28;20070;-74
2023/09/23 11:22:27;;;;;;;8.65;4.90;;;17.20;99.90;;;;;;5050650;28;20041;-75
2023/09/23 11:24:55;;;;;;;9.52;5.38;;;17.20;99.90;;;;;;5055364;28;20384;-75
2023/09/23 11:27:21;;;;;;;;;;;17.20;99.90;;;;;;5056949;28;20043;-75
2023/09/23 11:29:48;;;;;;;6.55;5.10;;;17.10;99.90;;;;;;5052598;28;20235;-74
2023/09/23 11:32:13;;;;;;;8.63;5.20;;;17.00;99.90;;;;;;5050457;28;20544;-74
2023/09/23 11:34:39;;;;;;;9.23;5.90;;;17.00;99.90;;;;;;5055441;28;20381;-75
2023/09/23 11:37:05;;;;;;;7.15;5.30;;;17.00;99.90;;;;;;5049599;28;20041;-75
2023/09/23 11:39:37;;;;;;;9.98;5.63;;;17.10;99.90;;;;;;5077773;28;20048;-74
2023/09/23 11:42:03;;;;;;;7.63;5.22;;;17.20;99.90;;;;;;5045936;28;20514;-75
2023/09/23 11:44:29;;;;;;;5.93;4.63;;;17.20;99.90;;;;;;5043218;28;20131;-74
2023/09/23 11:46:55;;;;;;;7.40;5.18;;;17.20;99.90;;;;;;5041808;28;20059;-75
2023/09/23 11:49:20;;;;;;;8.90;4.93;;;17.30;99.90;;;;;;5059590;28;20123;-74
2023/09/23 11:51:46;;;;;;;6.15;4.85;;;17.40;99.90;;;;;;5065738;28;24703;-74
2023/09/23 11:54:12;;;;;;;9.02;5.05;;;17.50;99.90;;;;;;5055914;28;20075;-75
2023/09/23 11:56:38;;;;;;;7.78;4.70;;;17.40;99.90;;;;;;5033957;28;20443;-74
2023/09/23 11:59:04;;;;;;;8.60;4.60;;;17.40;99.90;;;;;;5051337;28;20079;-74
2023/09/23 12:01:29;;;;;;;7.50;5.10;;;17.30;99.90;;;;;;5065111;28;20045;-74
2023/09/23 12:03:58;;;;;;;7.18;4.57;;;17.30;99.90;;;;;;5051837;28;20044;-75
2023/09/23 12:06:29;;;;;;;8.88;4.72;;;17.20;99.90;;;;;;5056108;28;20094;-74
2023/09/23 12:08:55;;;;;;;7.32;4.78;;;17.20;99.90;;;;;;5061208;28;20476;-74
2023/09/23 12:11:21;;;;;;;6.05;4.32;;;17.20;99.90;;;;;;5057940;28;20148;-74
2023/09/23 12:13:52;;;;;;;7.32;4.20;;;17.20;99.90;;;;;;5053422;28;20052;-74
2023/09/23 12:16:18;;;;;;;4.97;3.47;;;17.30;99.90;;;;;;5048106;28;20115;-74
2023/09/23 12:18:47;;;;;;;4.55;3.58;;;17.40;99.90;;;;;;5060749;28;20107;-75
2023/09/23 12:21:14;;;;;;;6.88;3.85;;;17.40;99.90;;;;;;5061125;28;20076;-74
2023/09/23 12:23:40;;;;;;;6.80;3.90;;;17.50;99.90;;;;;;5057889;28;20500;-74
2023/09/23 12:26:06;;;;;;;5.63;3.80;;;17.60;99.90;;;;;;5048359;28;20080;-74
2023/09/23 12:28:32;;;;;;;5.63;3.13;;;17.70;99.90;;;;;;5047347;28;20061;-79
2023/09/23 12:30:57;;;;;;;6.90;3.78;;;17.80;99.90;;;;;;5051423;28;20052;-75
2023/09/23 12:33:23;;;;;;;5.93;3.17;;;17.90;99.90;;;;;;5053639;28;20040;-75
2023/09/23 12:35:49;;;;;;;4.93;2.95;;;17.90;99.90;;;;;;5043634;28;20049;-74
2023/09/23 12:38:14;;;;;;;6.28;2.72;;;17.90;99.90;;;;;;5075352;28;20106;-74